createdAt,value
2023-04-04T00:01:10.164Z,3.88
2023-04-04T00:03:40.016Z,3.78
2023-04-04T00:06:29.968Z,4.10
2023-04-04T00:09:03.430Z,3.83
2023-04-04T00:11:37.890Z,3.70
2023-04-04T00:14:21.650Z,3.38
2023-04-04T00:17:02.681Z,3.63
2023-04-04T00:19:43.749Z,3.78
2023-04-04T00:22:19.982Z,3.17
2023-04-04T00:24:47.872Z,3.33
2023-04-04T00:27:21.994Z,3.40
2023-04-04T00:29:50.966Z,3.72
2023-04-04T00:32:25.134Z,3.40
2023-04-04T00:40:30.349Z,3.92
2023-04-04T00:43:19.446Z,3.92
2023-04-04T00:45:57.953Z,3.30
2023-04-04T00:48:30.597Z,3.55
2023-04-04T00:51:01.346Z,3.80
2023-04-04T00:53:41.745Z,3.47
2023-04-04T00:56:13.394Z,3.80
2023-04-04T00:58:58.592Z,3.92
2023-04-04T01:01:27.579Z,3.42
2023-04-04T01:03:55.169Z,3.63
2023-04-04T01:06:22.764Z,3.63
2023-04-04T01:08:50.145Z,3.72
2023-04-04T01:11:18.044Z,3.58
2023-04-04T01:13:45.585Z,3.95
2023-04-04T01:16:12.950Z,3.33
2023-04-04T01:18:42.426Z,3.75
2023-04-04T01:21:13.776Z,3.40
2023-04-04T01:23:51.051Z,3.55
2023-04-04T01:26:31.863Z,3.60
2023-04-04T01:29:00.624Z,3.80
2023-04-04T01:31:58.210Z,3.40
2023-04-04T01:38:23.970Z,3.20
2023-04-04T01:41:07.166Z,3.42
2023-04-04T01:43:42.913Z,3.80
2023-04-04T01:46:12.217Z,3.30
2023-04-04T01:48:40.776Z,3.50
2023-04-04T01:51:11.216Z,3.70
2023-04-04T01:53:39.277Z,4.10
2023-04-04T01:56:11.534Z,3.80
2023-04-04T01:58:39.650Z,4.03
2023-04-04T02:01:29.959Z,3.53
2023-04-04T02:04:01.091Z,3.65
2023-04-04T02:06:49.098Z,3.60
2023-04-04T02:09:19.671Z,3.78
2023-04-04T02:11:52.410Z,4.28
2023-04-04T02:14:22.095Z,3.83
2023-04-04T02:16:50.885Z,3.45
2023-04-04T02:19:18.870Z,3.80
2023-04-04T02:21:50.657Z,3.65
2023-04-04T02:24:21.643Z,3.78
2023-04-04T02:27:00.618Z,3.78
2023-04-04T02:29:36.179Z,3.70
2023-04-04T02:32:11.720Z,3.85
2023-04-04T02:34:39.805Z,4.00
2023-04-04T02:37:07.284Z,3.72
2023-04-04T02:39:34.609Z,4.00
2023-04-04T02:42:02.892Z,3.92
2023-04-04T02:44:31.542Z,4.10
2023-04-04T02:47:04.772Z,3.88
2023-04-04T02:49:34.562Z,4.03
2023-04-04T02:52:03.689Z,4.20
2023-04-04T02:54:43.243Z,4.30
2023-04-04T02:57:10.710Z,4.50
2023-04-04T02:59:40.154Z,3.67
2023-04-04T03:02:07.579Z,4.15
2023-04-04T03:04:36.784Z,4.15
2023-04-04T03:07:05.077Z,4.10
2023-04-04T03:09:34.414Z,4.50
2023-04-04T03:12:03.647Z,4.30
2023-04-04T03:14:31.265Z,4.60
2023-04-04T03:16:59.736Z,4.38
2023-04-04T03:19:28.248Z,4.80
2023-04-04T03:21:55.705Z,4.50
2023-04-04T03:24:23.660Z,4.95
2023-04-04T03:26:52.477Z,4.70
2023-04-04T03:29:23.000Z,4.70
2023-04-04T03:31:55.674Z,5.85
2023-04-04T03:37:01.151Z,5.13
2023-04-04T03:39:40.313Z,5.00
2023-04-04T03:42:17.358Z,4.85
2023-04-04T03:44:47.099Z,5.00
2023-04-04T03:47:19.143Z,4.82
2023-04-04T03:49:50.569Z,5.00
2023-04-04T03:52:22.862Z,4.78
2023-04-04T03:54:59.921Z,4.88
2023-04-04T03:57:27.930Z,5.13
2023-04-04T03:59:58.152Z,4.93
2023-04-04T04:02:25.704Z,5.25
2023-04-04T04:04:53.146Z,5.40
2023-04-04T04:07:20.629Z,4.93
2023-04-04T04:09:51.231Z,5.15
2023-04-04T04:12:31.894Z,5.07
2023-04-04T04:15:02.130Z,5.55
2023-04-04T04:17:32.232Z,4.93
2023-04-04T04:20:01.152Z,5.80
2023-04-04T04:22:28.526Z,5.40
2023-04-04T04:24:55.879Z,5.30
2023-04-04T04:27:23.862Z,5.57
2023-04-04T04:29:53.313Z,5.03
2023-04-04T04:32:20.989Z,5.68
2023-04-04T04:34:48.398Z,5.22
2023-04-04T04:37:17.688Z,5.55
2023-04-04T04:39:45.669Z,5.10
2023-04-04T04:42:16.479Z,5.38
2023-04-04T04:44:44.348Z,5.40
2023-04-04T04:47:11.991Z,5.93
2023-04-04T04:49:39.327Z,5.43
2023-04-04T04:52:06.733Z,5.60
2023-04-04T04:54:34.129Z,5.45
2023-04-04T04:57:04.700Z,5.25
2023-04-04T04:59:32.070Z,6.43
2023-04-04T05:01:59.429Z,6.15
2023-04-04T05:04:27.230Z,5.70
2023-04-04T05:06:55.360Z,5.88
2023-04-04T05:09:27.434Z,5.43
2023-04-04T05:11:56.661Z,5.57
2023-04-04T05:14:30.010Z,5.80
2023-04-04T05:16:59.160Z,5.80
2023-04-04T05:19:35.090Z,6.05
2023-04-04T05:22:08.352Z,5.53
2023-04-04T05:24:38.645Z,5.78
2023-04-04T05:27:16.677Z,6.28
2023-04-04T05:29:49.407Z,5.97
2023-04-04T05:32:21.514Z,5.45
2023-04-04T05:34:50.719Z,5.97
2023-04-04T05:40:07.040Z,6.78
2023-04-04T05:42:43.569Z,5.95
2023-04-04T05:45:11.788Z,5.72
2023-04-04T05:47:43.757Z,6.10
2023-04-04T05:50:15.489Z,6.37
2023-04-04T05:52:48.903Z,6.35
2023-04-04T05:55:21.010Z,6.68
2023-04-04T05:57:58.716Z,6.35
2023-04-04T06:00:32.048Z,6.35
2023-04-04T06:03:10.832Z,6.18
2023-04-04T06:05:42.425Z,5.93
2023-04-04T06:08:12.822Z,5.82
2023-04-04T06:10:40.653Z,6.15
2023-04-04T06:13:08.287Z,6.13
2023-04-04T06:15:38.549Z,6.57
2023-04-04T06:18:06.056Z,6.38
2023-04-04T06:20:38.686Z,6.50
2023-04-04T06:26:10.195Z,5.70
2023-04-04T06:28:54.104Z,4.97
2023-04-04T06:31:30.843Z,5.40
2023-04-04T06:34:02.796Z,5.25
2023-04-04T06:36:47.605Z,5.07
2023-04-04T06:39:15.684Z,5.07
2023-04-04T06:41:45.795Z,5.32
2023-04-04T06:44:16.374Z,4.85
2023-04-04T06:46:50.574Z,5.78
2023-04-04T06:49:18.037Z,5.65
2023-04-04T06:51:45.403Z,5.40
2023-04-04T06:54:12.808Z,4.60
2023-04-04T06:56:40.202Z,5.28
2023-04-04T06:59:11.396Z,5.07
2023-04-04T07:01:38.944Z,5.38
2023-04-04T07:04:06.417Z,4.70
2023-04-04T07:06:37.871Z,4.78
2023-04-04T07:09:21.866Z,5.32
2023-04-04T07:11:54.997Z,5.15
2023-04-04T07:14:26.143Z,4.50
2023-04-04T07:16:57.200Z,4.90
2023-04-04T07:19:34.831Z,5.05
2023-04-04T07:22:06.240Z,4.80
2023-04-04T07:24:34.938Z,4.97
2023-04-04T07:27:05.850Z,5.00
2023-04-04T07:29:34.639Z,5.15
2023-04-04T07:32:04.004Z,5.32
2023-04-04T07:34:32.544Z,5.03
2023-04-04T07:37:03.245Z,4.90
2023-04-04T07:39:32.028Z,4.95
2023-04-04T07:41:59.954Z,4.93
2023-04-04T07:44:29.000Z,4.90
2023-04-04T07:47:09.316Z,4.95
2023-04-04T07:49:38.992Z,4.80
2023-04-04T07:52:10.089Z,5.22
2023-04-04T07:57:11.758Z,5.00
2023-04-04T07:59:39.250Z,4.65
2023-04-04T08:02:06.604Z,4.68
2023-04-04T08:04:34.021Z,4.95
2023-04-04T08:07:01.424Z,4.63
2023-04-04T08:09:34.280Z,4.60
2023-04-04T08:12:02.250Z,5.00
2023-04-04T08:14:29.689Z,4.10
2023-04-04T08:17:04.991Z,4.70
2023-04-04T08:22:17.867Z,5.10
2023-04-04T08:24:46.426Z,4.50
2023-04-04T08:27:18.394Z,4.10
2023-04-04T08:29:46.898Z,3.47
2023-04-04T08:32:18.618Z,3.67
2023-04-04T08:34:50.176Z,3.50
2023-04-04T08:37:18.859Z,3.83
2023-04-04T08:39:52.852Z,2.97
2023-04-04T08:42:30.432Z,2.95
2023-04-04T08:45:01.876Z,3.17
2023-04-04T08:47:32.965Z,3.00
2023-04-04T08:50:05.146Z,2.83
2023-04-04T08:52:35.024Z,3.10
2023-04-04T08:55:12.266Z,3.05
2023-04-04T08:57:40.997Z,3.60
2023-04-04T09:00:09.312Z,3.10
2023-04-04T09:02:58.248Z,2.92
2023-04-04T09:05:31.594Z,2.45
2023-04-04T09:07:59.744Z,2.33
2023-04-04T09:10:30.241Z,2.70
2023-04-04T09:13:15.001Z,2.47
2023-04-04T09:15:58.100Z,2.30
2023-04-04T09:18:29.974Z,2.70
2023-04-04T09:21:00.252Z,2.92
2023-04-04T09:23:28.595Z,2.80
2023-04-04T09:28:39.606Z,2.72
2023-04-04T09:31:10.578Z,3.05
2023-04-04T09:33:39.453Z,3.25
2023-04-04T09:36:12.695Z,3.05
2023-04-04T09:38:45.912Z,3.17
2023-04-04T09:41:20.018Z,3.15
2023-04-04T09:43:48.506Z,3.00
2023-04-04T09:46:22.122Z,3.30
2023-04-04T09:48:55.534Z,3.40
2023-04-04T09:51:22.996Z,3.00
2023-04-04T09:53:51.861Z,3.20
2023-04-04T09:56:20.172Z,3.17
2023-04-04T09:59:02.415Z,3.40
2023-04-04T10:01:30.638Z,3.03
2023-04-04T10:03:59.394Z,2.75
2023-04-04T10:06:28.014Z,3.20
2023-04-04T10:08:59.278Z,3.72
2023-04-04T10:11:34.508Z,3.50
2023-04-04T10:14:06.514Z,3.10
2023-04-04T10:16:40.198Z,3.03
2023-04-04T10:19:09.871Z,3.25
2023-04-04T10:21:38.376Z,2.78
2023-04-04T10:24:10.996Z,2.90
2023-04-04T10:26:38.882Z,2.80
2023-04-04T10:29:07.671Z,3.40
2023-04-04T10:31:42.028Z,2.90
2023-04-04T10:34:30.087Z,3.20
2023-04-04T10:37:18.069Z,2.92
2023-04-04T10:39:56.232Z,3.15
2023-04-04T10:42:39.014Z,3.08
2023-04-04T10:45:21.518Z,3.40
2023-04-04T10:47:53.361Z,3.45
2023-04-04T10:50:22.956Z,3.60
2023-04-04T10:52:51.606Z,3.20
2023-04-04T10:55:25.287Z,2.75
2023-04-04T10:57:55.509Z,3.22
2023-04-04T11:00:24.780Z,2.95
2023-04-04T11:03:00.406Z,3.65
2023-04-04T11:05:53.551Z,3.42
2023-04-04T11:08:34.196Z,3.40
2023-04-04T11:11:09.709Z,3.80
2023-04-04T11:14:01.728Z,3.40
2023-04-04T11:16:50.290Z,3.55
2023-04-04T11:19:20.063Z,3.97
2023-04-04T11:21:49.321Z,3.70
2023-04-04T11:24:18.557Z,4.40
2023-04-04T11:26:48.770Z,3.72
2023-04-04T11:29:22.936Z,3.70
2023-04-04T11:31:51.371Z,3.78
2023-04-04T11:34:32.982Z,4.05
2023-04-04T11:37:14.869Z,4.38
2023-04-04T11:39:50.764Z,4.00
2023-04-04T11:42:18.153Z,4.38
2023-04-04T11:44:52.132Z,4.13
2023-04-04T11:47:28.690Z,3.67
2023-04-04T11:50:00.748Z,3.95
2023-04-04T11:52:39.264Z,4.40
2023-04-04T11:55:20.936Z,4.35
2023-04-04T11:57:56.549Z,4.20
2023-04-04T12:00:39.428Z,4.10
2023-04-04T12:03:11.780Z,4.50
2023-04-04T12:05:44.940Z,4.45
2023-04-04T12:08:14.631Z,4.00
2023-04-04T12:10:44.389Z,4.13
2023-04-04T12:13:16.026Z,3.83
2023-04-04T12:15:46.981Z,4.13
2023-04-04T12:18:27.648Z,4.40
2023-04-04T12:20:56.220Z,4.60
2023-04-04T12:25:57.844Z,3.97
2023-04-04T12:28:28.371Z,4.60
2023-04-04T12:30:56.622Z,4.57
2023-04-04T12:33:24.049Z,4.57
2023-04-04T12:35:56.306Z,4.30
2023-04-04T12:38:25.236Z,3.72
2023-04-04T12:40:53.790Z,4.15
2023-04-04T12:43:24.173Z,4.65
2023-04-04T12:45:54.177Z,4.65
2023-04-04T12:48:32.112Z,4.50
2023-04-04T12:51:01.098Z,4.63
2023-04-04T12:53:31.313Z,4.13
2023-04-04T12:56:16.438Z,4.68
2023-04-04T12:58:48.379Z,4.85
2023-04-04T13:01:21.812Z,4.83
2023-04-04T13:03:49.709Z,4.20
2023-04-04T13:06:17.641Z,4.45
2023-04-04T13:08:53.458Z,4.75
2023-04-04T13:11:21.830Z,4.75
2023-04-04T13:13:59.462Z,3.95
2023-04-04T13:16:38.097Z,4.15
2023-04-04T13:19:06.190Z,4.55
2023-04-04T13:21:34.797Z,4.43
2023-04-04T13:24:04.016Z,4.40
2023-04-04T13:26:31.621Z,4.32
2023-04-04T13:28:59.055Z,4.45
2023-04-04T13:31:27.276Z,4.07
2023-04-04T13:33:54.633Z,4.57
2023-04-04T13:36:22.004Z,4.32
2023-04-04T13:38:49.406Z,4.55
2023-04-04T13:41:17.052Z,4.40
2023-04-04T13:43:44.445Z,5.00
2023-04-04T13:46:12.006Z,4.50
2023-04-04T13:48:40.634Z,4.60
2023-04-04T13:51:10.671Z,4.10
2023-04-04T13:53:47.350Z,4.40
2023-04-04T13:56:19.213Z,4.40
2023-04-04T13:58:54.023Z,4.60
2023-04-04T14:01:27.357Z,4.15
2023-04-04T14:04:10.255Z,4.15
2023-04-04T14:06:48.969Z,4.43
2023-04-04T14:09:22.297Z,4.70
2023-04-04T14:12:05.418Z,4.00
2023-04-04T14:14:35.789Z,4.68
2023-04-04T14:20:07.075Z,4.13
2023-04-04T14:22:36.921Z,4.68
2023-04-04T14:25:06.356Z,4.50
2023-04-04T14:27:35.667Z,4.70
2023-04-04T14:30:03.825Z,4.32
2023-04-04T14:32:34.053Z,4.53
2023-04-04T14:35:03.789Z,4.38
2023-04-04T14:37:33.897Z,3.97
2023-04-04T14:40:02.023Z,4.70
2023-04-04T14:42:29.738Z,4.53
2023-04-04T14:44:57.394Z,5.90
2023-04-04T14:47:26.339Z,4.85
2023-04-04T14:49:54.944Z,4.40
2023-04-04T14:52:23.439Z,4.35
2023-04-04T14:54:51.059Z,4.40
2023-04-04T14:57:18.512Z,5.00
2023-04-04T14:59:45.954Z,4.60
2023-04-04T15:02:13.397Z,5.18
2023-04-04T15:04:44.912Z,4.97
2023-04-04T15:07:12.554Z,4.50
2023-04-04T15:09:42.337Z,4.47
2023-04-04T15:12:09.715Z,4.95
2023-04-04T15:14:39.674Z,4.53
2023-04-04T15:17:10.139Z,4.38
2023-04-04T15:19:37.582Z,4.53
2023-04-04T15:22:05.612Z,4.65
2023-04-04T15:24:33.310Z,4.50
2023-04-04T15:27:01.622Z,4.70
2023-04-04T15:29:29.065Z,4.45
2023-04-04T15:31:56.629Z,4.50
2023-04-04T15:34:24.023Z,5.28
2023-04-04T15:36:52.235Z,5.10
2023-04-04T15:39:19.803Z,5.03
2023-04-04T15:41:47.146Z,5.45
2023-04-04T15:44:14.641Z,4.90
2023-04-04T15:46:42.133Z,4.80
2023-04-04T15:49:09.597Z,5.30
2023-04-04T15:51:39.155Z,5.07
2023-04-04T15:54:07.134Z,5.10
2023-04-04T15:56:35.047Z,4.90
2023-04-04T15:59:06.335Z,4.88
2023-04-04T16:01:40.985Z,5.20
2023-04-04T16:04:16.750Z,5.28
2023-04-04T16:06:47.620Z,5.15
2023-04-04T16:09:20.717Z,4.65
2023-04-04T16:11:55.545Z,5.30
2023-04-04T16:14:31.364Z,4.72
2023-04-04T16:17:03.516Z,5.25
2023-04-04T16:19:44.832Z,5.07
2023-04-04T16:22:15.891Z,4.97
2023-04-04T16:24:55.004Z,5.47
2023-04-04T16:27:29.927Z,5.28
2023-04-04T16:29:59.447Z,5.38
2023-04-04T16:32:29.567Z,5.32
2023-04-04T16:35:03.860Z,5.32
2023-04-04T16:37:32.554Z,5.00
2023-04-04T16:40:01.318Z,5.78
2023-04-04T16:42:31.647Z,5.72
2023-04-04T16:44:59.309Z,5.50
2023-04-04T16:47:28.010Z,4.97
2023-04-04T16:50:00.430Z,5.80
2023-04-04T16:52:27.765Z,5.72
2023-04-04T16:54:55.097Z,5.32
2023-04-04T16:57:30.361Z,5.10
2023-04-04T16:59:57.901Z,4.90
2023-04-04T17:02:25.706Z,5.70
2023-04-04T17:04:53.977Z,4.82
2023-04-04T17:07:26.577Z,5.35
2023-04-04T17:09:55.074Z,4.65
2023-04-04T17:12:27.823Z,5.05
2023-04-04T17:15:08.339Z,4.82
2023-04-04T17:17:55.375Z,4.68
2023-04-04T17:20:31.006Z,5.15
2023-04-04T17:23:20.490Z,5.65
2023-04-04T17:25:48.603Z,5.68
2023-04-04T17:28:25.681Z,5.20
2023-04-04T17:30:55.754Z,5.57
2023-04-04T17:33:32.451Z,4.80
2023-04-04T17:36:10.022Z,5.40
2023-04-04T17:38:42.602Z,4.97
2023-04-04T17:41:21.662Z,5.53
2023-04-04T17:43:54.664Z,5.22
2023-04-04T17:46:25.549Z,5.25
2023-04-04T17:48:58.885Z,5.05
2023-04-04T17:51:28.050Z,5.60
2023-04-04T17:54:04.872Z,5.22
2023-04-04T17:56:41.688Z,5.90
2023-04-04T17:59:25.259Z,5.13
2023-04-04T18:01:59.636Z,5.60
2023-04-04T18:04:40.612Z,5.82
2023-04-04T18:07:43.809Z,5.88
2023-04-04T18:10:30.937Z,5.40
2023-04-04T18:13:05.406Z,5.47
2023-04-04T18:15:41.221Z,5.50
2023-04-04T18:21:01.534Z,5.72
2023-04-04T18:23:30.220Z,5.82
2023-04-04T18:25:59.796Z,5.57
2023-04-04T18:28:27.491Z,5.72
2023-04-04T18:30:55.343Z,6.32
2023-04-04T18:33:25.120Z,5.85
2023-04-04T18:35:53.141Z,6.60
2023-04-04T18:38:20.677Z,6.50
2023-04-04T18:40:48.317Z,5.95
2023-04-04T18:43:15.725Z,6.53
2023-04-04T18:45:43.334Z,6.57
2023-04-04T18:48:12.691Z,6.35
2023-04-04T18:50:41.068Z,6.30
2023-04-04T18:53:11.227Z,6.57
2023-04-04T18:55:57.339Z,6.15
2023-04-04T19:01:08.837Z,6.72
2023-04-04T19:03:52.102Z,6.10
2023-04-04T19:08:48.723Z,6.93
2023-04-04T19:11:16.562Z,6.63
2023-04-04T19:13:46.822Z,6.40
2023-04-04T19:16:18.524Z,6.57
2023-04-04T19:18:51.217Z,7.10
2023-04-04T19:21:24.486Z,6.40
2023-04-04T19:23:57.532Z,6.63
2023-04-04T19:26:25.091Z,6.32
2023-04-04T19:28:53.194Z,6.55
2023-04-04T19:31:22.810Z,7.35
2023-04-04T19:34:04.982Z,7.30
2023-04-04T19:36:36.726Z,7.07
2023-04-04T19:39:06.136Z,7.07
2023-04-04T19:41:40.002Z,6.82
2023-04-04T19:44:27.792Z,6.97
2023-04-04T19:47:00.144Z,6.90
2023-04-04T19:49:30.544Z,7.45
2023-04-04T19:52:00.604Z,7.45
2023-04-04T19:54:34.038Z,7.38
2023-04-04T19:57:13.070Z,7.63
2023-04-04T20:00:27.514Z,7.32
2023-04-04T20:03:00.174Z,7.72
2023-04-04T20:05:56.663Z,7.27
2023-04-04T20:11:31.478Z,7.68
2023-04-04T20:14:00.484Z,7.75
2023-04-04T20:16:29.862Z,8.07
2023-04-04T20:18:59.510Z,7.55
2023-04-04T20:21:32.702Z,8.48
2023-04-04T20:24:05.472Z,8.10
2023-04-04T20:26:38.658Z,8.38
2023-04-04T20:29:21.738Z,8.60
2023-04-04T20:34:57.332Z,8.15
2023-04-04T20:37:29.378Z,8.70
2023-04-04T20:40:14.996Z,8.30
2023-04-04T20:42:44.331Z,8.45
2023-04-04T20:45:26.938Z,8.35
2023-04-04T20:48:03.855Z,9.00
2023-04-04T20:50:35.548Z,7.80
2023-04-04T20:53:05.511Z,8.95
2023-04-04T20:55:38.939Z,8.45
2023-04-04T20:58:20.014Z,9.07
2023-04-04T21:00:48.400Z,9.15
2023-04-04T21:03:39.449Z,8.80
2023-04-04T21:06:18.127Z,8.55
2023-04-04T21:09:04.649Z,9.07
2023-04-04T21:11:36.463Z,9.00
2023-04-04T21:14:04.441Z,9.10
2023-04-04T21:16:32.484Z,10.05
2023-04-04T21:19:01.841Z,9.50
2023-04-04T21:21:31.812Z,9.73
2023-04-04T21:24:06.655Z,9.80
2023-04-04T21:26:38.481Z,10.15
2023-04-04T21:29:22.447Z,10.33
2023-04-04T21:31:55.734Z,9.88
2023-04-04T21:34:25.637Z,10.85
2023-04-04T21:37:05.007Z,10.05
2023-04-04T21:39:32.557Z,10.10
2023-04-04T21:42:06.999Z,11.05
2023-04-04T21:44:36.642Z,10.23
2023-04-04T21:47:05.410Z,10.75
2023-04-04T21:49:34.372Z,11.00
2023-04-04T21:52:13.983Z,10.88
2023-04-04T21:54:43.668Z,11.00
2023-04-04T21:57:14.550Z,10.57
2023-04-04T21:59:43.322Z,9.90
2023-04-04T22:02:13.900Z,9.93
2023-04-04T22:04:42.622Z,9.15
2023-04-04T22:07:11.432Z,9.77
2023-04-04T22:09:45.446Z,9.88
2023-04-04T22:12:16.055Z,10.35
2023-04-04T22:14:45.771Z,10.93
2023-04-04T22:17:22.897Z,11.10
2023-04-04T22:20:00.288Z,11.13
2023-04-04T22:22:30.882Z,11.15
2023-04-04T22:25:05.717Z,11.35
2023-04-04T22:27:33.998Z,11.10
2023-04-04T22:30:01.795Z,10.38
2023-04-04T22:32:33.176Z,11.25
2023-04-04T22:35:02.521Z,11.32
2023-04-04T22:37:35.752Z,10.50
2023-04-04T22:40:05.728Z,11.30
2023-04-04T22:42:34.973Z,10.95
2023-04-04T22:45:03.728Z,11.13
2023-04-04T22:47:33.300Z,11.63
2023-04-04T22:50:05.152Z,11.07
2023-04-04T22:52:43.415Z,12.60
2023-04-04T22:55:25.727Z,12.77
2023-04-04T22:57:54.516Z,12.00
2023-04-04T23:00:30.502Z,12.30
2023-04-04T23:03:06.278Z,11.93
2023-04-04T23:05:34.624Z,12.50
2023-04-04T23:08:10.834Z,11.75
2023-04-04T23:10:41.184Z,11.82
2023-04-04T23:13:08.783Z,12.38
2023-04-04T23:16:01.845Z,12.98
2023-04-04T23:18:31.868Z,13.52
2023-04-04T23:21:00.137Z,13.40
2023-04-04T23:23:32.371Z,13.48
2023-04-04T23:26:03.618Z,13.38
2023-04-04T23:28:31.065Z,12.00
2023-04-04T23:31:01.295Z,12.18
2023-04-04T23:33:31.844Z,13.02
2023-04-04T23:35:59.226Z,14.05
2023-04-04T23:38:26.580Z,12.80
2023-04-04T23:40:54.273Z,13.35
2023-04-04T23:43:21.955Z,12.77
2023-04-04T23:45:49.362Z,12.80
2023-04-04T23:48:16.903Z,12.43
2023-04-04T23:50:44.390Z,13.20
2023-04-04T23:53:13.072Z,12.73
2023-04-04T23:55:41.676Z,12.90
2023-04-04T23:58:10.967Z,13.65
